createdAt,value
2022-08-27T00:01:46.667Z,3.97
2022-08-27T00:04:16.336Z,4.70
2022-08-27T00:06:46.709Z,4.23
2022-08-27T00:09:16.048Z,5.27
2022-08-27T00:11:56.328Z,5.07
2022-08-27T00:14:32.513Z,4.00
2022-08-27T00:17:08.536Z,4.27
2022-08-27T00:19:38.099Z,4.27
2022-08-27T00:22:09.189Z,4.10
2022-08-27T00:24:46.399Z,4.47
2022-08-27T00:27:18.985Z,4.00
2022-08-27T00:29:49.174Z,4.20
2022-08-27T00:32:27.087Z,4.07
2022-08-27T00:34:56.047Z,4.40
2022-08-27T00:37:24.957Z,4.43
2022-08-27T00:39:53.681Z,4.00
2022-08-27T00:42:22.883Z,4.60
2022-08-27T00:44:53.011Z,4.47
2022-08-27T00:47:26.310Z,4.30
2022-08-27T00:50:02.123Z,4.73
2022-08-27T00:52:35.517Z,4.30
2022-08-27T00:55:13.103Z,4.10
2022-08-27T00:57:44.902Z,4.20
2022-08-27T01:00:19.760Z,4.57
2022-08-27T01:03:02.321Z,4.40
2022-08-27T01:05:31.490Z,4.93
2022-08-27T01:08:09.789Z,4.17
2022-08-27T01:10:40.351Z,4.17
2022-08-27T01:13:10.678Z,4.63
2022-08-27T01:15:43.533Z,4.00
2022-08-27T01:18:15.455Z,5.23
2022-08-27T01:20:52.852Z,4.90
2022-08-27T01:23:31.590Z,4.63
2022-08-27T01:26:07.978Z,4.50
2022-08-27T01:28:38.385Z,4.40
2022-08-27T01:31:13.676Z,4.30
2022-08-27T01:33:54.300Z,4.70
2022-08-27T01:36:23.225Z,4.67
2022-08-27T01:38:51.761Z,4.47
2022-08-27T01:41:22.506Z,3.93
2022-08-27T01:43:52.848Z,4.63
2022-08-27T01:46:24.650Z,4.70
2022-08-27T01:48:53.479Z,3.77
2022-08-27T01:51:22.884Z,4.77
2022-08-27T01:53:51.734Z,4.47
2022-08-27T01:56:21.885Z,4.20
2022-08-27T01:59:16.697Z,4.57
2022-08-27T02:01:45.372Z,4.47
2022-08-27T02:04:14.307Z,4.10
2022-08-27T02:06:43.040Z,3.97
2022-08-27T02:09:12.055Z,4.33
2022-08-27T02:11:45.018Z,4.23
2022-08-27T02:14:20.371Z,4.67
2022-08-27T02:16:52.213Z,4.43
2022-08-27T02:19:27.016Z,4.30
2022-08-27T02:22:00.286Z,4.63
2022-08-27T02:24:29.793Z,4.97
2022-08-27T02:27:00.276Z,5.07
2022-08-27T02:29:29.272Z,4.67
2022-08-27T02:32:31.304Z,4.47
2022-08-27T02:35:01.418Z,4.80
2022-08-27T02:37:30.304Z,4.70
2022-08-27T02:39:59.170Z,4.27
2022-08-27T02:42:29.974Z,4.40
2022-08-27T02:44:58.766Z,3.97
2022-08-27T02:47:28.282Z,4.43
2022-08-27T02:49:56.967Z,4.20
2022-08-27T02:52:27.732Z,4.70
2022-08-27T02:54:56.658Z,4.03
2022-08-27T02:57:25.685Z,4.60
2022-08-27T02:59:55.998Z,4.70
2022-08-27T03:02:25.802Z,4.60
2022-08-27T03:04:56.716Z,4.70
2022-08-27T03:07:25.510Z,4.87
2022-08-27T03:09:54.282Z,4.90
2022-08-27T03:12:24.948Z,4.33
2022-08-27T03:14:55.324Z,4.40
2022-08-27T03:17:41.166Z,4.90
2022-08-27T03:20:12.356Z,4.67
2022-08-27T03:22:42.434Z,4.50
2022-08-27T03:25:23.819Z,4.80
2022-08-27T03:27:53.030Z,5.17
2022-08-27T03:30:24.876Z,4.70
2022-08-27T03:32:54.261Z,4.90
2022-08-27T03:35:24.076Z,4.87
2022-08-27T03:37:52.948Z,4.50
2022-08-27T03:40:22.195Z,4.83
2022-08-27T03:42:50.980Z,4.03
2022-08-27T03:45:19.919Z,4.40
2022-08-27T03:47:50.911Z,4.87
2022-08-27T03:50:19.807Z,4.13
2022-08-27T03:52:48.940Z,4.60
2022-08-27T03:55:18.674Z,4.63
2022-08-27T03:57:47.673Z,4.63
2022-08-27T04:00:17.062Z,4.80
2022-08-27T04:02:46.339Z,4.80
2022-08-27T04:05:16.761Z,4.70
2022-08-27T04:07:45.864Z,4.83
2022-08-27T04:10:16.976Z,4.43
2022-08-27T04:12:46.574Z,4.67
2022-08-27T04:15:15.565Z,4.90
2022-08-27T04:17:44.586Z,4.07
2022-08-27T04:20:34.657Z,4.63
2022-08-27T04:23:03.606Z,4.57
2022-08-27T04:25:32.495Z,4.37
2022-08-27T04:28:01.229Z,4.37
2022-08-27T04:30:31.566Z,4.67
2022-08-27T04:33:00.367Z,4.13
2022-08-27T04:35:29.153Z,4.40
2022-08-27T04:37:58.989Z,4.10
2022-08-27T04:40:49.151Z,4.40
2022-08-27T04:43:18.285Z,4.30
2022-08-27T04:45:49.351Z,4.07
2022-08-27T04:48:20.267Z,4.07
2022-08-27T04:50:49.570Z,4.37
2022-08-27T04:53:19.616Z,4.10
2022-08-27T04:55:52.474Z,4.00
2022-08-27T04:58:23.664Z,4.80
2022-08-27T05:00:55.999Z,4.37
2022-08-27T05:03:50.273Z,4.20
2022-08-27T05:06:19.756Z,5.63
2022-08-27T05:09:14.911Z,4.27
2022-08-27T05:11:47.146Z,4.80
2022-08-27T05:14:17.616Z,4.30
2022-08-27T05:16:47.657Z,3.87
2022-08-27T05:19:16.598Z,4.00
2022-08-27T05:21:51.130Z,4.93
2022-08-27T05:24:49.951Z,4.43
2022-08-27T05:27:47.498Z,4.53
2022-08-27T05:30:16.325Z,4.97
2022-08-27T05:32:45.289Z,4.67
2022-08-27T05:35:15.778Z,5.20
2022-08-27T05:37:44.949Z,5.00
2022-08-27T05:40:14.337Z,4.67
2022-08-27T05:42:50.326Z,5.73
2022-08-27T05:45:20.043Z,4.87
2022-08-27T05:47:48.815Z,5.13
2022-08-27T05:50:20.716Z,4.50
2022-08-27T05:52:52.148Z,4.70
2022-08-27T05:55:46.433Z,4.47
2022-08-27T05:58:30.858Z,4.83
2022-08-27T06:01:09.561Z,4.93
2022-08-27T06:03:47.432Z,5.40
2022-08-27T06:06:16.129Z,4.73
2022-08-27T06:08:44.874Z,5.40
2022-08-27T06:11:13.743Z,5.27
2022-08-27T06:13:43.756Z,5.70
2022-08-27T06:16:39.560Z,5.47
2022-08-27T06:19:12.263Z,4.60
2022-08-27T06:21:42.405Z,5.57
2022-08-27T06:24:27.751Z,5.87
2022-08-27T06:26:57.691Z,5.50
2022-08-27T06:29:27.857Z,5.13
2022-08-27T06:31:56.584Z,5.83
2022-08-27T06:34:25.297Z,5.00
2022-08-27T06:36:56.010Z,5.80
2022-08-27T06:39:38.411Z,5.50
2022-08-27T06:42:11.160Z,6.13
2022-08-27T06:44:41.953Z,5.90
2022-08-27T06:47:10.837Z,5.53
2022-08-27T06:49:46.352Z,5.73
2022-08-27T06:52:15.946Z,5.57
2022-08-27T06:54:45.111Z,5.50
2022-08-27T06:57:13.612Z,5.50
2022-08-27T06:59:44.174Z,5.90
2022-08-27T07:02:12.941Z,5.83
2022-08-27T07:04:41.490Z,5.07
2022-08-27T07:07:13.989Z,5.63
2022-08-27T07:09:56.934Z,5.03
2022-08-27T07:12:30.725Z,5.97
2022-08-27T07:15:31.058Z,5.60
2022-08-27T07:18:01.472Z,5.63
2022-08-27T07:20:30.111Z,6.07
2022-08-27T07:22:58.916Z,4.17
2022-08-27T07:25:27.617Z,5.30
2022-08-27T07:27:56.875Z,4.73
2022-08-27T07:30:25.751Z,4.90
2022-08-27T07:32:56.112Z,5.33
2022-08-27T07:35:24.899Z,6.20
2022-08-27T07:37:53.512Z,5.07
2022-08-27T07:40:22.482Z,5.50
2022-08-27T07:43:08.997Z,5.60
2022-08-27T07:45:47.972Z,5.27
2022-08-27T07:48:43.370Z,4.87
2022-08-27T07:51:17.618Z,5.50
2022-08-27T07:53:46.981Z,5.17
2022-08-27T07:56:16.367Z,5.07
2022-08-27T07:58:46.012Z,5.37
2022-08-27T08:01:15.522Z,6.13
2022-08-27T08:03:46.826Z,4.87
2022-08-27T08:06:17.459Z,5.33
2022-08-27T08:08:46.969Z,4.97
2022-08-27T08:11:19.112Z,5.63
2022-08-27T08:13:49.433Z,5.70
2022-08-27T08:16:18.223Z,4.93
2022-08-27T08:18:48.109Z,5.03
2022-08-27T08:21:42.821Z,5.67
2022-08-27T08:24:11.397Z,5.10
2022-08-27T08:26:42.264Z,5.27
2022-08-27T08:29:14.697Z,5.00
2022-08-27T08:31:50.231Z,4.53
2022-08-27T08:34:21.297Z,4.40
2022-08-27T08:36:54.960Z,4.40
2022-08-27T08:39:24.619Z,4.97
2022-08-27T08:41:57.701Z,4.77
2022-08-27T08:44:35.832Z,4.53
2022-08-27T08:47:11.292Z,4.97
2022-08-27T08:49:52.895Z,3.90
2022-08-27T08:52:33.654Z,4.33
2022-08-27T08:55:30.389Z,4.90
2022-08-27T08:58:17.537Z,4.53
2022-08-27T09:00:54.555Z,4.00
2022-08-27T09:03:23.689Z,4.03
2022-08-27T09:06:03.102Z,4.30
2022-08-27T09:08:41.107Z,3.97
2022-08-27T09:11:19.556Z,3.40
2022-08-27T09:13:57.233Z,3.40
2022-08-27T09:16:26.307Z,3.30
2022-08-27T09:18:56.429Z,3.30
2022-08-27T09:21:50.702Z,3.20
2022-08-27T09:24:33.303Z,3.63
2022-08-27T09:27:02.271Z,4.32
2022-08-27T09:29:31.809Z,3.30
2022-08-27T09:32:06.696Z,3.53
2022-08-27T09:34:39.865Z,3.83
2022-08-27T09:37:15.759Z,3.42
2022-08-27T09:39:54.118Z,3.53
2022-08-27T09:42:35.961Z,4.00
2022-08-27T09:45:11.926Z,3.72
2022-08-27T09:47:46.819Z,3.60
2022-08-27T09:50:20.270Z,3.80
2022-08-27T09:52:56.479Z,3.72
2022-08-27T09:55:32.250Z,3.47
2022-08-27T09:58:02.968Z,4.28
2022-08-27T10:00:39.150Z,3.60
2022-08-27T10:03:12.196Z,3.60
2022-08-27T10:05:46.214Z,4.03
2022-08-27T10:08:25.431Z,4.22
2022-08-27T10:10:59.909Z,3.38
2022-08-27T10:13:37.203Z,3.47
2022-08-27T10:16:31.322Z,3.63
2022-08-27T10:19:18.345Z,4.38
2022-08-27T10:21:55.569Z,3.30
2022-08-27T10:24:42.241Z,3.55
2022-08-27T10:27:22.205Z,3.72
2022-08-27T10:30:04.010Z,3.70
2022-08-27T10:32:55.216Z,3.92
2022-08-27T10:35:29.922Z,3.53
2022-08-27T10:38:15.661Z,4.00
2022-08-27T10:40:55.867Z,3.92
2022-08-27T10:44:19.905Z,4.05
2022-08-27T10:47:18.932Z,4.53
2022-08-27T10:50:00.733Z,4.88
2022-08-27T10:52:37.880Z,4.57
2022-08-27T10:55:16.353Z,4.40
2022-08-27T10:58:07.540Z,4.05
2022-08-27T11:00:46.799Z,4.50
2022-08-27T11:03:23.769Z,4.47
2022-08-27T11:05:53.003Z,4.40
2022-08-27T11:08:28.917Z,4.28
2022-08-27T11:11:31.687Z,3.92
2022-08-27T11:14:21.335Z,4.35
2022-08-27T11:16:56.806Z,4.22
2022-08-27T11:19:40.824Z,4.13
2022-08-27T11:22:26.003Z,4.35
2022-08-27T11:25:04.334Z,4.40
2022-08-27T11:27:35.835Z,4.30
2022-08-27T11:30:10.714Z,4.10
2022-08-27T11:33:06.291Z,3.70
2022-08-27T11:35:57.588Z,4.47
2022-08-27T11:38:56.256Z,4.32
2022-08-27T11:42:09.772Z,4.35
2022-08-27T11:44:45.632Z,4.43
2022-08-27T11:47:23.408Z,4.18
2022-08-27T11:49:56.610Z,4.18
2022-08-27T11:52:30.514Z,4.43
2022-08-27T11:55:25.213Z,4.32
2022-08-27T11:58:09.250Z,4.13
2022-08-27T12:00:40.963Z,4.20
2022-08-27T12:03:29.059Z,4.15
2022-08-27T12:06:35.644Z,4.13
2022-08-27T12:09:18.031Z,3.92
2022-08-27T12:12:02.896Z,4.70
2022-08-27T12:14:45.030Z,4.82
2022-08-27T12:17:28.729Z,4.15
2022-08-27T12:20:24.321Z,4.28
2022-08-27T12:23:28.108Z,4.03
2022-08-27T12:26:00.558Z,4.47
2022-08-27T12:28:29.851Z,4.13
2022-08-27T12:30:58.905Z,4.53
2022-08-27T12:33:41.305Z,4.97
2022-08-27T12:36:27.881Z,3.78
2022-08-27T12:39:00.639Z,4.40
2022-08-27T12:41:44.699Z,4.65
2022-08-27T12:44:27.983Z,4.53
2022-08-27T12:47:03.299Z,4.55
2022-08-27T12:49:40.445Z,3.97
2022-08-27T12:52:29.709Z,4.10
2022-08-27T12:55:15.491Z,3.75
2022-08-27T12:57:56.519Z,3.80
2022-08-27T13:00:26.702Z,3.53
2022-08-27T13:03:22.999Z,3.90
2022-08-27T13:06:06.901Z,4.15
2022-08-27T13:09:30.556Z,4.28
2022-08-27T13:12:04.768Z,3.80
2022-08-27T13:14:39.969Z,4.28
2022-08-27T13:17:13.338Z,4.10
2022-08-27T13:19:51.478Z,3.83
2022-08-27T13:22:25.543Z,3.83
2022-08-27T13:25:00.345Z,3.97
2022-08-27T13:27:33.182Z,4.03
2022-08-27T13:30:08.945Z,4.30
2022-08-27T13:32:39.449Z,3.63
2022-08-27T13:35:10.400Z,3.95
2022-08-27T13:37:47.032Z,3.90
2022-08-27T13:40:57.016Z,4.03
2022-08-27T13:43:35.862Z,3.70
2022-08-27T13:46:11.211Z,3.85
2022-08-27T13:48:43.668Z,3.70
2022-08-27T13:51:15.822Z,3.78
2022-08-27T13:54:07.602Z,3.20
2022-08-27T13:56:42.605Z,4.70
2022-08-27T13:59:24.362Z,4.10
2022-08-27T14:02:00.597Z,3.88
2022-08-27T14:04:39.720Z,3.40
2022-08-27T14:07:15.491Z,3.63
2022-08-27T14:09:54.091Z,3.85
2022-08-27T14:13:11.837Z,4.07
2022-08-27T14:15:43.534Z,3.92
2022-08-27T14:18:55.046Z,3.58
2022-08-27T14:21:20.586Z,3.65
2022-08-27T14:23:50.905Z,3.33
2022-08-27T14:26:20.625Z,3.90
2022-08-27T14:28:51.141Z,4.05
2022-08-27T14:31:19.887Z,4.00
2022-08-27T14:34:21.054Z,3.30
2022-08-27T14:36:54.721Z,3.75
2022-08-27T14:39:26.759Z,3.88
2022-08-27T14:41:59.582Z,3.30
2022-08-27T14:44:30.137Z,4.00
2022-08-27T14:47:02.834Z,4.28
2022-08-27T14:49:36.305Z,3.72
2022-08-27T14:52:11.063Z,3.78
2022-08-27T14:54:40.419Z,3.78
2022-08-27T14:57:11.242Z,3.85
2022-08-27T14:59:42.411Z,3.50
2022-08-27T15:02:15.082Z,4.00
2022-08-27T15:04:47.195Z,3.65
2022-08-27T15:07:19.776Z,7.78
2022-08-27T15:09:51.669Z,5.47
2022-08-27T15:12:26.380Z,4.05
2022-08-27T15:14:57.202Z,3.50
2022-08-27T15:17:34.174Z,3.70
2022-08-27T15:20:06.756Z,3.88
2022-08-27T15:22:37.838Z,3.72
2022-08-27T15:25:11.530Z,3.70
2022-08-27T15:27:40.301Z,3.63
2022-08-27T15:30:15.296Z,4.15
2022-08-27T15:32:51.367Z,3.90
2022-08-27T15:35:26.829Z,3.75
2022-08-27T15:37:58.481Z,3.85
2022-08-27T15:40:32.765Z,3.50
2022-08-27T15:43:05.760Z,4.10
2022-08-27T15:45:36.876Z,3.78
2022-08-27T15:48:06.453Z,3.90
2022-08-27T15:50:36.275Z,3.53
2022-08-27T15:53:09.027Z,3.40
2022-08-27T15:55:45.938Z,3.83
2022-08-27T15:58:14.869Z,4.70
2022-08-27T16:00:46.868Z,4.85
2022-08-27T16:03:17.663Z,3.75
2022-08-27T16:05:48.691Z,4.03
2022-08-27T16:08:18.793Z,3.35
2022-08-27T16:10:47.500Z,3.40
2022-08-27T16:13:24.517Z,3.42
2022-08-27T16:16:00.423Z,3.55
2022-08-27T16:18:33.888Z,3.65
2022-08-27T16:21:05.436Z,3.50
2022-08-27T16:23:36.504Z,3.47
2022-08-27T16:26:06.644Z,3.50
2022-08-27T16:28:35.623Z,3.55
2022-08-27T16:31:06.969Z,4.07
2022-08-27T16:33:41.484Z,3.60
2022-08-27T16:36:10.825Z,3.95
2022-08-27T16:38:40.012Z,3.33
2022-08-27T16:41:09.627Z,3.80
2022-08-27T16:43:39.558Z,3.90
2022-08-27T16:46:10.395Z,3.78
2022-08-27T16:49:11.447Z,3.78
2022-08-27T16:51:43.597Z,4.00
2022-08-27T16:54:24.129Z,5.18
2022-08-27T16:56:52.935Z,8.30
2022-08-27T16:59:22.102Z,8.73
2022-08-27T17:01:54.769Z,5.20
2022-08-27T17:04:31.203Z,6.77
2022-08-27T17:07:01.518Z,10.50
2022-08-27T17:09:30.551Z,12.87
2022-08-27T17:12:04.680Z,10.70
2022-08-27T17:14:47.046Z,6.03
2022-08-27T17:17:19.030Z,5.80
2022-08-27T17:19:47.989Z,4.97
2022-08-27T17:22:16.752Z,4.60
2022-08-27T17:24:46.230Z,5.00
2022-08-27T17:27:15.170Z,4.60
2022-08-27T17:29:43.952Z,5.03
2022-08-27T17:32:14.066Z,5.07
2022-08-27T17:35:10.944Z,4.70
2022-08-27T17:37:40.339Z,4.50
2022-08-27T17:40:11.430Z,4.50
2022-08-27T17:42:41.452Z,4.70
2022-08-27T17:45:11.952Z,4.40
2022-08-27T17:47:41.126Z,4.30
2022-08-27T17:50:11.753Z,4.30
2022-08-27T17:53:05.520Z,4.10
2022-08-27T17:55:34.745Z,4.53
2022-08-27T17:58:28.971Z,4.33
2022-08-27T18:00:58.093Z,4.30
2022-08-27T18:03:27.649Z,4.60
2022-08-27T18:05:58.031Z,4.53
2022-08-27T18:08:26.686Z,4.73
2022-08-27T18:10:55.730Z,4.93
2022-08-27T18:13:24.663Z,4.87
2022-08-27T18:15:53.613Z,4.70
2022-08-27T18:18:22.419Z,4.83
2022-08-27T18:20:57.090Z,4.57
2022-08-27T18:23:31.005Z,4.93
2022-08-27T18:26:05.212Z,4.80
2022-08-27T18:28:34.262Z,4.67
2022-08-27T18:31:27.705Z,4.43
2022-08-27T18:33:57.341Z,5.03
2022-08-27T18:36:29.136Z,5.10
2022-08-27T18:38:58.696Z,4.70
2022-08-27T18:41:30.904Z,4.37
2022-08-27T18:44:00.531Z,4.80
2022-08-27T18:46:29.848Z,4.57
2022-08-27T18:48:59.205Z,5.13
2022-08-27T18:51:31.519Z,4.47
2022-08-27T18:54:05.948Z,4.83
2022-08-27T18:56:34.635Z,5.17
2022-08-27T18:59:04.421Z,4.67
2022-08-27T19:01:33.231Z,4.53
2022-08-27T19:04:02.336Z,4.50
2022-08-27T19:06:33.588Z,4.80
2022-08-27T19:09:02.414Z,4.37
2022-08-27T19:11:32.933Z,4.43
2022-08-27T19:14:01.613Z,4.40
2022-08-27T19:16:44.576Z,4.97
2022-08-27T19:19:16.865Z,5.13
2022-08-27T19:21:51.427Z,4.80
2022-08-27T19:24:22.307Z,5.23
2022-08-27T19:26:53.051Z,5.43
2022-08-27T19:29:22.180Z,4.90
2022-08-27T19:31:50.998Z,5.00
2022-08-27T19:34:21.160Z,4.90
2022-08-27T19:36:51.341Z,4.97
2022-08-27T19:39:20.217Z,4.60
2022-08-27T19:41:48.990Z,4.63
2022-08-27T19:44:17.808Z,4.67
2022-08-27T19:46:47.760Z,4.53
2022-08-27T19:49:16.608Z,4.50
2022-08-27T19:51:45.744Z,6.10
2022-08-27T19:54:15.986Z,4.93
2022-08-27T19:56:44.719Z,5.10
2022-08-27T19:59:21.420Z,5.23
2022-08-27T20:01:52.825Z,5.20
2022-08-27T20:04:22.159Z,5.00
2022-08-27T20:06:58.937Z,4.87
2022-08-27T20:09:31.167Z,5.30
2022-08-27T20:12:00.148Z,5.50
2022-08-27T20:14:53.623Z,5.37
2022-08-27T20:17:30.457Z,5.20
2022-08-27T20:19:59.780Z,4.90
2022-08-27T20:22:28.975Z,5.20
2022-08-27T20:25:25.188Z,5.20
2022-08-27T20:27:54.388Z,5.70
2022-08-27T20:30:27.093Z,5.17
2022-08-27T20:32:56.130Z,5.57
2022-08-27T20:35:25.607Z,4.60
2022-08-27T20:37:54.938Z,5.97
2022-08-27T20:40:31.390Z,6.07
2022-08-27T20:43:01.647Z,5.70
2022-08-27T20:45:33.135Z,5.70
2022-08-27T20:48:04.138Z,5.00
2022-08-27T20:50:33.712Z,4.77
2022-08-27T20:53:02.481Z,5.30
2022-08-27T20:55:32.812Z,5.03
2022-08-27T20:58:20.942Z,4.73
2022-08-27T21:00:54.898Z,4.77
2022-08-27T21:03:24.421Z,4.80
2022-08-27T21:05:53.054Z,4.87
2022-08-27T21:08:26.850Z,5.33
2022-08-27T21:10:59.464Z,4.70
2022-08-27T21:13:30.649Z,5.03
2022-08-27T21:16:00.112Z,4.93
2022-08-27T21:18:29.653Z,5.10
2022-08-27T21:20:59.431Z,5.00
2022-08-27T21:23:29.119Z,4.70
2022-08-27T21:26:03.477Z,5.20
2022-08-27T21:28:32.951Z,4.93
2022-08-27T21:31:01.610Z,4.80
2022-08-27T21:33:30.455Z,4.67
2022-08-27T21:35:59.548Z,5.37
2022-08-27T21:38:32.204Z,4.60
2022-08-27T21:41:02.458Z,5.17
2022-08-27T21:43:31.380Z,4.77
2022-08-27T21:46:00.441Z,4.73
2022-08-27T21:48:29.404Z,4.73
2022-08-27T21:50:58.077Z,4.30
2022-08-27T21:53:26.919Z,5.13
2022-08-27T21:55:56.057Z,4.87
2022-08-27T21:58:26.816Z,5.23
2022-08-27T22:00:56.085Z,4.90
2022-08-27T22:03:26.776Z,4.77
2022-08-27T22:05:55.592Z,4.67
2022-08-27T22:08:25.044Z,5.20
2022-08-27T22:11:05.092Z,5.10
2022-08-27T22:13:35.688Z,5.40
2022-08-27T22:16:05.798Z,4.77
2022-08-27T22:18:34.898Z,5.03
2022-08-27T22:21:05.428Z,4.57
2022-08-27T22:23:34.427Z,4.90
2022-08-27T22:26:04.270Z,5.50
2022-08-27T22:28:34.528Z,5.03
2022-08-27T22:31:03.635Z,4.70
2022-08-27T22:33:32.401Z,5.37
2022-08-27T22:36:01.322Z,5.20
2022-08-27T22:38:30.152Z,4.60
2022-08-27T22:40:58.899Z,5.03
2022-08-27T22:43:27.762Z,5.00
2022-08-27T22:45:58.012Z,5.10
2022-08-27T22:48:26.924Z,4.93
2022-08-27T22:50:55.631Z,5.70
2022-08-27T22:53:24.571Z,5.07
2022-08-27T22:55:53.099Z,5.87
2022-08-27T22:58:24.376Z,5.30
2022-08-27T23:01:21.904Z,5.27
2022-08-27T23:03:50.547Z,5.53
2022-08-27T23:06:19.430Z,5.77
2022-08-27T23:08:48.759Z,5.27
2022-08-27T23:11:17.475Z,5.10
2022-08-27T23:13:46.056Z,5.83
2022-08-27T23:16:15.954Z,5.73
2022-08-27T23:18:46.554Z,5.47
2022-08-27T23:21:15.255Z,5.17
2022-08-27T23:23:44.094Z,6.00
2022-08-27T23:26:30.220Z,5.50
2022-08-27T23:28:59.089Z,4.80
2022-08-27T23:31:28.981Z,5.50
2022-08-27T23:33:59.813Z,5.27
2022-08-27T23:36:29.349Z,5.37
2022-08-27T23:38:59.678Z,5.57
2022-08-27T23:41:28.896Z,6.33
2022-08-27T23:43:58.776Z,6.10
2022-08-27T23:46:28.608Z,6.60
2022-08-27T23:49:05.270Z,6.10
2022-08-27T23:51:34.764Z,5.90
2022-08-27T23:54:03.948Z,6.03
2022-08-27T23:56:33.315Z,5.87
2022-08-27T23:59:01.981Z,5.63
